createdAt,value
2022-12-22T00:01:37.559Z,0.97
2022-12-22T00:05:01.851Z,1.03
2022-12-22T00:08:23.644Z,1.07
2022-12-22T00:11:45.650Z,1.06
2022-12-22T00:15:07.997Z,1.09
2022-12-22T00:18:34.027Z,1.23
2022-12-22T00:21:54.971Z,1.11
2022-12-22T00:25:15.896Z,0.97
2022-12-22T00:28:36.929Z,1.01
2022-12-22T00:31:59.315Z,0.93
2022-12-22T00:35:20.287Z,0.90
2022-12-22T00:38:41.195Z,0.77
2022-12-22T00:42:02.016Z,0.79
2022-12-22T00:45:23.368Z,0.66
2022-12-22T00:48:45.757Z,0.60
2022-12-22T00:52:06.785Z,0.75
2022-12-22T00:55:32.663Z,0.83
2022-12-22T00:58:54.332Z,0.87
2022-12-22T01:02:15.513Z,0.93
2022-12-22T01:05:37.254Z,0.95
2022-12-22T01:08:58.746Z,0.92
2022-12-22T01:12:20.247Z,0.92
2022-12-22T01:15:42.132Z,0.97
2022-12-22T01:19:03.527Z,0.96
2022-12-22T01:22:29.372Z,1.01
2022-12-22T01:25:50.379Z,1.02
2022-12-22T01:29:11.183Z,1.12
2022-12-22T01:32:33.897Z,1.26
2022-12-22T01:35:54.738Z,1.22
2022-12-22T01:39:15.716Z,1.25
2022-12-22T01:42:36.506Z,1.18
2022-12-22T01:45:57.834Z,1.25
2022-12-22T01:49:18.859Z,1.48
2022-12-22T01:52:45.799Z,1.42
2022-12-22T01:56:06.681Z,1.48
2022-12-22T01:59:28.265Z,1.56
2022-12-22T02:02:50.560Z,1.58
2022-12-22T02:06:31.011Z,1.65
2022-12-22T02:09:58.254Z,1.64
2022-12-22T02:13:38.135Z,1.64
2022-12-22T02:17:06.948Z,1.84
2022-12-22T02:20:40.077Z,1.85
2022-12-22T02:24:10.454Z,1.91
2022-12-22T02:27:32.119Z,1.76
2022-12-22T02:30:53.347Z,1.79
2022-12-22T02:34:14.218Z,1.72
2022-12-22T02:37:39.896Z,1.74
2022-12-22T02:41:12.486Z,1.66
2022-12-22T02:44:33.387Z,1.71
2022-12-22T02:48:04.818Z,1.77
2022-12-22T02:51:44.569Z,1.70
2022-12-22T02:55:05.323Z,1.80
2022-12-22T02:58:26.358Z,1.87
2022-12-22T03:01:47.871Z,1.74
2022-12-22T03:05:08.483Z,1.82
2022-12-22T03:08:29.281Z,1.84
2022-12-22T03:11:49.971Z,1.91
2022-12-22T03:15:10.741Z,1.81
2022-12-22T03:18:31.986Z,1.80
2022-12-22T03:21:52.689Z,1.95
2022-12-22T03:25:13.646Z,1.90
2022-12-22T03:28:16.106Z,1.89
2022-12-22T03:31:18.361Z,1.85
2022-12-22T03:34:20.979Z,1.73
2022-12-22T03:37:23.168Z,1.80
2022-12-22T03:40:25.668Z,1.79
2022-12-22T03:43:46.535Z,1.64
2022-12-22T03:46:49.156Z,1.62
2022-12-22T03:49:51.397Z,1.44
2022-12-22T03:52:53.895Z,1.27
2022-12-22T03:55:56.107Z,1.04
2022-12-22T03:58:58.695Z,0.92
2022-12-22T04:02:00.937Z,0.88
2022-12-22T04:05:04.115Z,0.90
2022-12-22T04:08:06.459Z,1.08
2022-12-22T04:11:35.093Z,0.93
2022-12-22T04:14:37.669Z,0.83
2022-12-22T04:17:40.116Z,0.91
2022-12-22T04:20:42.277Z,0.92
2022-12-22T04:23:44.869Z,0.86
2022-12-22T04:26:47.056Z,0.84
2022-12-22T04:29:49.571Z,0.80
2022-12-22T04:32:51.792Z,0.84
2022-12-22T04:35:54.272Z,0.79
2022-12-22T04:38:56.578Z,0.76
2022-12-22T04:41:59.014Z,0.81
2022-12-22T04:45:01.130Z,0.80
2022-12-22T04:48:03.763Z,0.68
2022-12-22T04:51:06.278Z,0.71
2022-12-22T04:54:08.776Z,0.77
2022-12-22T04:57:11.402Z,0.74
2022-12-22T05:00:14.870Z,0.80
2022-12-22T05:03:17.205Z,0.82
2022-12-22T05:06:19.768Z,0.73
2022-12-22T05:09:21.930Z,0.73
2022-12-22T05:12:43.087Z,0.73
2022-12-22T05:15:45.248Z,0.66
2022-12-22T05:18:47.894Z,0.69
2022-12-22T05:21:50.091Z,0.74
2022-12-22T05:24:52.530Z,0.73
2022-12-22T05:27:54.833Z,0.64
2022-12-22T05:30:57.782Z,0.64
2022-12-22T05:33:59.996Z,0.69
2022-12-22T05:37:02.468Z,0.60
2022-12-22T05:40:05.642Z,0.64
2022-12-22T05:43:08.113Z,0.56
2022-12-22T05:46:11.389Z,0.54
2022-12-22T05:49:13.901Z,0.59
2022-12-22T05:52:15.958Z,0.68
2022-12-22T05:55:18.485Z,0.65
2022-12-22T05:58:20.808Z,0.65
2022-12-22T06:01:23.575Z,0.66
2022-12-22T06:04:26.236Z,0.62
2022-12-22T06:07:28.588Z,0.56
2022-12-22T06:10:31.359Z,0.66
2022-12-22T06:13:33.512Z,0.62
2022-12-22T06:16:36.005Z,0.70
2022-12-22T06:19:38.624Z,0.59
2022-12-22T06:22:41.748Z,0.55
2022-12-22T06:26:01.119Z,0.50
2022-12-22T06:29:04.190Z,0.50
2022-12-22T06:32:06.408Z,0.53
2022-12-22T06:35:10.115Z,0.55
2022-12-22T06:38:12.876Z,0.57
2022-12-22T06:41:35.933Z,0.52
2022-12-22T06:44:38.162Z,0.60
2022-12-22T06:47:41.130Z,0.59
2022-12-22T06:50:43.722Z,0.54
2022-12-22T06:53:46.231Z,0.51
2022-12-22T06:56:48.803Z,0.65
2022-12-22T06:59:57.252Z,0.57
2022-12-22T07:03:00.502Z,0.53
2022-12-22T07:06:03.275Z,0.57
2022-12-22T07:09:05.500Z,0.65
2022-12-22T07:12:07.924Z,0.75
2022-12-22T07:15:10.720Z,0.93
2022-12-22T07:18:13.248Z,1.00
2022-12-22T07:21:15.472Z,1.16
2022-12-22T07:24:23.203Z,1.23
2022-12-22T07:27:25.531Z,1.24
2022-12-22T07:30:28.318Z,1.41
2022-12-22T07:33:31.052Z,1.50
2022-12-22T07:36:33.930Z,1.50
2022-12-22T07:39:36.274Z,1.40
2022-12-22T07:42:44.855Z,1.36
2022-12-22T14:46:38.404Z,2.70
2022-12-22T14:49:59.565Z,2.70
2022-12-22T14:53:05.052Z,2.20
2022-12-22T14:56:12.400Z,2.18
2022-12-22T15:13:30.637Z,2.16
2022-12-22T15:16:33.430Z,2.06
2022-12-22T15:19:36.833Z,2.07
2022-12-22T15:22:41.451Z,2.06
2022-12-22T15:25:44.219Z,1.97
2022-12-22T15:28:47.226Z,1.99
2022-12-22T15:31:49.702Z,1.95
2022-12-22T15:34:52.212Z,1.97
2022-12-22T15:37:54.416Z,1.93
2022-12-22T15:40:56.938Z,1.94
2022-12-22T15:43:59.606Z,1.92
2022-12-22T15:47:02.295Z,1.93
2022-12-22T15:50:05.354Z,1.91
2022-12-22T15:53:15.505Z,1.93
2022-12-22T15:56:20.911Z,1.86
2022-12-22T15:59:36.917Z,1.84
2022-12-22T16:02:39.369Z,1.81
2022-12-22T16:05:46.080Z,1.80
2022-12-22T16:08:52.992Z,1.84
2022-12-22T16:11:55.568Z,1.77
2022-12-22T16:14:59.543Z,1.75
2022-12-22T16:18:02.623Z,1.73
2022-12-22T16:51:01.896Z,2.28
2022-12-22T16:54:04.652Z,2.28
2022-12-22T16:57:08.401Z,1.74
2022-12-22T17:00:17.887Z,1.78
2022-12-22T17:03:26.073Z,1.75
2022-12-22T17:06:29.225Z,1.75
2022-12-22T17:09:46.192Z,1.76
2022-12-22T17:12:49.840Z,1.81
2022-12-22T17:15:52.435Z,1.76
2022-12-22T17:18:54.946Z,1.81
2022-12-22T17:21:58.658Z,1.78
2022-12-22T17:25:05.879Z,1.78
2022-12-22T17:28:13.204Z,1.91
2022-12-22T17:31:21.997Z,1.94
2022-12-22T17:34:24.370Z,1.86
2022-12-22T17:37:26.997Z,1.88
2022-12-22T17:40:34.221Z,1.89
2022-12-22T17:43:36.852Z,1.89
2022-12-22T17:46:39.543Z,1.89
2022-12-22T17:49:43.375Z,1.82
2022-12-22T17:52:47.256Z,1.86
2022-12-22T17:56:08.716Z,1.90
2022-12-22T17:59:12.149Z,1.91
2022-12-22T18:02:20.590Z,1.92
2022-12-22T18:05:27.050Z,1.98
2022-12-22T18:08:29.289Z,1.95
2022-12-22T18:11:32.500Z,1.96
2022-12-22T18:14:34.934Z,1.98
2022-12-22T18:17:38.183Z,2.07
2022-12-22T18:20:41.891Z,1.95
2022-12-22T18:23:49.949Z,1.98
2022-12-22T18:26:53.172Z,1.98
2022-12-22T18:29:55.822Z,1.99
2022-12-22T18:32:58.140Z,1.99
2022-12-22T18:36:00.933Z,2.06
2022-12-22T18:39:04.446Z,2.05
2022-12-22T18:42:26.007Z,2.12
2022-12-22T18:45:31.038Z,2.13
2022-12-22T18:48:34.967Z,2.12
2022-12-22T18:51:38.540Z,2.15
2022-12-22T18:54:41.707Z,2.18
2022-12-22T18:57:47.401Z,2.19
2022-12-22T19:00:51.776Z,2.24
2022-12-22T19:03:57.251Z,2.23
2022-12-22T19:06:59.953Z,2.24
2022-12-22T19:10:02.420Z,2.26
2022-12-22T19:13:09.073Z,2.30
2022-12-22T19:16:14.830Z,2.25
2022-12-22T19:19:19.866Z,2.25
2022-12-22T19:22:22.501Z,2.25
2022-12-22T19:25:31.672Z,2.24
2022-12-22T19:28:38.912Z,2.24
2022-12-22T19:31:43.625Z,2.24
2022-12-22T19:34:46.107Z,2.24
2022-12-22T19:37:51.699Z,2.23
2022-12-22T19:41:00.138Z,2.26
2022-12-22T19:44:03.799Z,2.21
2022-12-22T19:47:16.803Z,2.17
2022-12-22T19:50:25.588Z,2.18
2022-12-22T19:53:28.110Z,2.22
2022-12-22T19:56:31.785Z,2.18
2022-12-22T19:59:39.681Z,2.14
2022-12-22T20:02:43.256Z,2.09
2022-12-22T20:05:46.569Z,2.09
2022-12-22T20:08:49.674Z,2.14
2022-12-22T20:11:53.542Z,2.19
2022-12-22T20:14:57.057Z,2.14
2022-12-22T20:18:12.342Z,2.16
2022-12-22T20:21:35.284Z,2.19
2022-12-22T20:24:39.361Z,2.29
2022-12-22T20:27:42.145Z,2.39
2022-12-22T20:30:45.937Z,2.47
2022-12-22T20:33:49.433Z,2.55
2022-12-22T20:36:52.736Z,2.65
2022-12-22T20:39:54.964Z,2.75
2022-12-22T20:42:58.222Z,2.69
2022-12-22T20:46:04.056Z,2.66
2022-12-22T20:49:15.136Z,2.68
2022-12-22T20:52:18.900Z,2.65
2022-12-22T20:55:25.209Z,2.64
2022-12-22T20:58:32.594Z,2.63
2022-12-22T21:01:36.059Z,2.59
2022-12-22T21:04:38.316Z,2.44
2022-12-22T21:07:45.902Z,2.42
2022-12-22T21:10:49.831Z,2.37
2022-12-22T21:13:53.953Z,2.32
2022-12-22T21:16:57.017Z,2.25
2022-12-22T21:19:59.669Z,2.32
2022-12-22T21:23:01.987Z,2.29
2022-12-22T21:26:16.395Z,2.29
2022-12-22T21:29:23.717Z,2.30
2022-12-22T21:32:27.540Z,2.33
2022-12-22T21:35:35.802Z,2.42
2022-12-22T21:38:38.775Z,2.53
2022-12-22T21:42:00.029Z,2.53
2022-12-22T21:45:04.321Z,2.59
2022-12-22T21:48:07.041Z,2.63
2022-12-22T21:51:13.141Z,2.69
2022-12-22T21:54:15.978Z,2.73
2022-12-22T21:57:18.743Z,2.78
2022-12-22T22:00:23.341Z,2.85
2022-12-22T22:03:27.135Z,2.86
2022-12-22T22:06:29.552Z,2.85
2022-12-22T22:09:32.505Z,2.90
2022-12-22T22:12:37.838Z,2.97
2022-12-22T22:15:40.964Z,2.97
2022-12-22T22:18:45.059Z,3.10
2022-12-22T22:21:48.181Z,3.11
2022-12-22T22:24:50.595Z,3.19
2022-12-22T22:27:53.668Z,3.25
2022-12-22T22:30:56.139Z,3.35
2022-12-22T22:33:58.913Z,3.42
2022-12-22T22:37:01.556Z,3.49
2022-12-22T22:40:05.124Z,3.56
2022-12-22T22:43:07.360Z,3.65
2022-12-22T22:46:10.113Z,3.71
2022-12-22T22:49:12.770Z,3.79
2022-12-22T22:52:15.885Z,3.83
2022-12-22T22:55:18.536Z,3.89
2022-12-22T22:58:21.373Z,3.92
2022-12-22T23:01:23.603Z,3.95
2022-12-22T23:04:27.025Z,3.95
2022-12-22T23:07:29.455Z,4.00
2022-12-22T23:10:39.391Z,4.03
2022-12-22T23:13:43.967Z,4.02
2022-12-22T23:16:50.028Z,4.03
2022-12-22T23:19:52.248Z,4.08
2022-12-22T23:22:55.023Z,4.10
2022-12-22T23:25:57.653Z,4.11
2022-12-22T23:29:03.643Z,4.14
2022-12-22T23:32:06.829Z,4.14
2022-12-22T23:35:09.869Z,4.14
2022-12-22T23:38:13.337Z,4.10
2022-12-22T23:41:16.390Z,4.10
2022-12-22T23:44:18.908Z,4.09
2022-12-22T23:47:22.442Z,4.07
2022-12-22T23:50:25.873Z,4.05
2022-12-22T23:53:30.540Z,4.19
2022-12-22T23:56:33.687Z,4.17
2022-12-22T23:59:36.777Z,4.22
